Easter Island, Chile

12:00 PM EAST on September 05, 2015 (GMT -0500)
Mataveri International | | Change Station
CLOSE
Current Station
Airport
Location: Easter Island,
Elevation: 154 ft
Nearby Weather Stations

Elev 154 ft 27.16 °S, 109.43 °W | Updated 1 hour ago

Scattered Clouds
Scattered Clouds
68 °F
Feels Like 68 °F
N
8
Wind Variable Wind from NNW

Today
High -- | Low -- °F
--% Chance of Precip.
Yesterday
High -- | Low -- °F
Precip. -- in
8:26 AM 8:06 PM
Waning Gibbous, 47% visible
Pressure 30.04 in
Visibility 6.2 miles
Clouds Scattered Clouds 2000 ft
Dew Point 61 °F
Humidity 78%
Rainfall 0.00 in
Snow Depth Not available.
UV 3 out of 12
Pollen Not available.
Air Quality Not available.
Flu Activity Not available.
METAR SCIP 051600Z 34007KT 300V020 9999 SCT020 20/16 Q1017 NOSIG
Pressure 30.04 in
Visibility 6.2 miles
Clouds Scattered Clouds 2000 ft
Dew Point 61 °F
Humidity 78%
Rainfall 0.00 in
Snow Depth Not available.
UV 3 out of 12
Pollen Not available.
Air Quality Not available.
Flu Activity Not available.
METAR SCIP 051600Z 34007KT 300V020 9999 SCT020 20/16 Q1017 NOSIG

10-Day Weather Forecast

×

Almanac

Astronomy

Sep. 05, 2015 Rise Set
Actual Time
Civil Twilight
Nautical Twilight
Astronomical Twilight
Moon
Length of Visible Light
Length of Day
Tomorrow will be .
, % of the Moon is Illuminated

Today's Extremes

Country Highs Country Lows

Community

WunderPhotos

Upload Photos

1,852,503 photos uploaded!

WunderBlogs® & News

Nearby

Air Quality

  Air Quality AQ Index Pollutant
Not available.

Snow Depth

Station Depth Elevation

Earthquake Activity

City Distance Mag. Time & Date
Minimum magnitude displayed is 2.5.

Coastal Water Temperatures

Place Temperature

Stations

Nearby Weather Stations

Station Location Temp. Windchill Dew Point Humidity Wind Precip. Elev Updated Type